Time;durP1;ratioP1;P1;durP2;ratioP2;P2;SDS_P1;SDS_P2;PMS_P1;PMS_P2;Temp;Humidity;BMP_temperature;BMP_pressure;BME280_temperature;BME280_humidity;BME280_pressure;Samples;Min_cycle;Max_cycle;Signal;HPM_P1;HPM_P2
2022/01/08 00:00:21;;;;;;;9.48;1.50;;;4.00;99.90;;;;;;5051169;28;20105;-76
2022/01/08 00:02:48;;;;;;;8.65;1.30;;;4.00;99.90;;;;;;5034818;28;20044;-76
2022/01/08 00:05:14;;;;;;;9.55;1.70;;;4.50;99.90;;;;;;5067377;28;20123;-76
2022/01/08 00:07:40;;;;;;;6.53;1.48;;;4.30;99.90;;;;;;5044768;28;20568;-76
2022/01/08 00:10:06;;;;;;;8.18;1.60;;;4.70;99.90;;;;;;5034974;28;20091;-76
2022/01/08 00:12:32;;;;;;;6.10;1.38;;;4.00;99.90;;;;;;5044649;28;20080;-77
2022/01/08 00:14:58;;;;;;;5.72;1.50;;;4.00;99.90;;;;;;5051471;28;20313;-76
2022/01/08 00:17:23;;;;;;;11.75;1.95;;;4.10;99.90;;;;;;5066330;28;20507;-77
2022/01/08 00:19:51;;;;;;;5.18;1.38;;;4.00;99.90;;;;;;5051987;28;20129;-76
2022/01/08 00:22:17;;;;;;;7.45;1.60;;;3.80;99.90;;;;;;5048089;28;20118;-77
2022/01/08 00:24:42;;;;;;;4.13;1.23;;;3.60;99.90;;;;;;5051569;28;20047;-77
2022/01/08 00:27:08;;;;;;;4.95;1.50;;;4.60;99.90;;;;;;5049214;28;20489;-76
2022/01/08 00:29:34;;;;;;;5.65;1.58;;;3.90;99.90;;;;;;5035895;28;20040;-77
2022/01/08 00:31:59;;;;;;;6.05;1.67;;;3.30;99.90;;;;;;5031973;28;20086;-77
2022/01/08 00:34:25;;;;;;;4.75;1.20;;;3.20;99.90;;;;;;5018636;28;20051;-77
2022/01/08 00:36:51;;;;;;;3.22;1.27;;;3.20;99.90;;;;;;5051274;28;20519;-76
2022/01/08 00:39:17;;;;;;;7.53;1.05;;;3.20;99.90;;;;;;5046146;28;20047;-78
2022/01/08 00:41:42;;;;;;;8.63;1.67;;;3.20;99.90;;;;;;5017590;28;20122;-77
2022/01/08 00:44:08;;;;;;;3.60;1.10;;;3.20;99.90;;;;;;5049802;28;20056;-78
2022/01/08 00:46:34;;;;;;;5.20;1.30;;;3.40;99.90;;;;;;5050398;28;20390;-77
2022/01/08 00:49:02;;;;;;;3.55;1.15;;;4.20;99.90;;;;;;5050289;28;20123;-77
2022/01/08 00:51:27;;;;;;;6.95;1.58;;;3.40;99.90;;;;;;5067496;28;20056;-76
2022/01/08 00:53:53;;;;;;;5.28;1.38;;;3.50;99.90;;;;;;5035039;28;20054;-77
2022/01/08 00:56:19;;;;;;;6.60;1.60;;;3.50;99.90;;;;;;5049285;28;20461;-78
2022/01/08 00:58:44;;;;;;;7.82;1.13;;;4.00;99.90;;;;;;5048426;28;20493;-76
2022/01/08 01:01:10;;;;;;;5.20;1.25;;;3.70;99.90;;;;;;5050323;28;20040;-77
2022/01/08 01:03:36;;;;;;;4.13;1.35;;;3.70;99.90;;;;;;5046217;28;20190;-77
2022/01/08 01:06:02;;;;;;;3.03;0.85;;;3.80;99.90;;;;;;5066515;28;20072;-77
2022/01/08 01:08:28;;;;;;;5.38;1.00;;;3.80;99.90;;;;;;5064867;28;20132;-77
2022/01/08 01:10:54;;;;;;;6.30;1.30;;;4.70;99.90;;;;;;5048970;28;20051;-78
2022/01/08 01:13:19;;;;;;;5.30;1.10;;;3.80;99.90;;;;;;5032860;28;20095;-77
2022/01/08 01:15:45;;;;;;;4.68;1.10;;;4.80;99.90;;;;;;5049076;28;20393;-77
2022/01/08 01:18:11;;;;;;;6.72;2.00;;;4.70;99.90;;;;;;5064345;28;20039;-77
2022/01/08 01:20:37;;;;;;;7.57;1.45;;;4.80;99.90;;;;;;5044513;28;20933;-77
2022/01/08 01:23:27;;;;;;;4.00;1.00;;;4.30;99.90;;;;;;5050048;28;20047;-77
2022/01/08 01:25:56;;;;;;;6.85;1.30;;;4.80;99.90;;;;;;5065061;28;20055;-77
2022/01/08 01:41:56;;;;;;;;;;;3.70;99.90;;;;;;5064838;28;20055;-77
2022/01/08 01:47:07;;;;;;;5.13;1.00;;;4.10;99.90;;;;;;5064808;28;20073;-77
2022/01/08 01:49:36;;;;;;;5.18;1.45;;;3.70;99.90;;;;;;5027204;28;20046;-76
2022/01/08 01:52:03;;;;;;;3.17;0.95;;;4.20;99.90;;;;;;5063836;28;20048;-79
2022/01/08 01:54:31;;;;;;;5.45;1.05;;;3.70;99.90;;;;;;5049947;28;20994;-78
2022/01/08 01:57:00;;;;;;;3.22;0.70;;;4.70;99.90;;;;;;5049479;28;20036;-77
2022/01/08 01:59:27;;;;;;;1.92;1.08;;;3.70;99.90;;;;;;5059636;28;20555;-77
2022/01/08 02:01:53;;;;;;;6.53;1.27;;;3.60;99.90;;;;;;5048423;28;20158;-78
2022/01/08 02:04:18;;;;;;;5.60;1.38;;;3.70;99.90;;;;;;5046982;28;20489;-77
2022/01/08 02:06:44;;;;;;;5.05;1.50;;;4.80;99.90;;;;;;5033192;28;20052;-77
2022/01/08 02:09:10;;;;;;;6.50;1.30;;;3.80;99.90;;;;;;5041044;28;20040;-77
2022/01/08 02:12:03;;;;;;;6.03;1.58;;;4.40;99.90;;;;;;5044375;28;20122;-77
2022/01/08 02:14:34;;;;;;;5.43;1.17;;;3.70;99.90;;;;;;5061604;28;20052;-77
2022/01/08 02:17:02;;;;;;;7.70;1.35;;;3.80;99.90;;;;;;5060986;28;20090;-77
2022/01/08 02:19:28;;;;;;;4.95;1.27;;;3.80;99.90;;;;;;5060596;28;20068;-77
2022/01/08 02:21:59;;;;;;;3.90;1.27;;;3.70;99.90;;;;;;5037623;28;20067;-78
2022/01/08 02:24:27;;;;;;;5.45;1.35;;;4.60;99.90;;;;;;5055603;28;20072;-78
2022/01/08 02:26:53;;;;;;;7.97;2.60;;;3.60;99.90;;;;;;5067952;28;20331;-76
2022/01/08 02:29:22;;;;;;;7.20;2.45;;;3.60;99.90;;;;;;5048274;28;20047;-78
2022/01/08 02:32:00;;;;;;;5.30;1.40;;;4.10;99.90;;;;;;5053671;28;20826;-77
2022/01/08 02:34:27;;;;;;;7.18;1.83;;;3.40;99.90;;;;;;5051784;28;20040;-77
2022/01/08 02:36:54;;;;;;;7.05;1.40;;;3.30;99.90;;;;;;5050383;28;20040;-77
2022/01/08 02:39:20;;;;;;;3.95;1.30;;;3.20;99.90;;;;;;5051037;28;20080;-77
2022/01/08 02:41:46;;;;;;;2.85;1.27;;;4.50;99.90;;;;;;5049828;28;20056;-77
2022/01/08 02:44:13;;;;;;;8.35;1.30;;;3.10;99.90;;;;;;5035235;28;20742;-76
2022/01/08 02:46:40;;;;;;;6.78;1.30;;;3.10;99.90;;;;;;5052930;28;20040;-77
2022/01/08 02:49:06;;;;;;;5.10;1.38;;;3.10;99.90;;;;;;5070043;28;20040;-78
2022/01/08 02:51:34;;;;;;;8.57;1.55;;;3.00;99.90;;;;;;5052089;28;20048;-77
2022/01/08 02:54:00;;;;;;;10.52;1.80;;;3.20;99.90;;;;;;5068095;28;20044;-76
2022/01/08 02:56:26;;;;;;;4.38;1.73;;;3.50;99.90;;;;;;5067913;28;20051;-77
2022/01/08 02:58:52;;;;;;;4.20;1.30;;;3.70;99.90;;;;;;5051254;28;20036;-77
2022/01/08 03:01:17;;;;;;;3.00;1.00;;;3.70;99.90;;;;;;5036029;28;20044;-77
2022/01/08 03:03:43;;;;;;;4.13;1.52;;;4.40;99.90;;;;;;5067688;28;20127;-76
2022/01/08 03:06:09;;;;;;;5.00;1.38;;;3.40;99.90;;;;;;5049255;28;20504;-77
2022/01/08 03:08:34;;;;;;;6.30;1.33;;;4.50;99.90;;;;;;5068991;28;20395;-77
2022/01/08 03:11:00;;;;;;;6.95;1.30;;;3.40;99.90;;;;;;5052416;28;20056;-76
2022/01/08 03:13:26;;;;;;;3.53;1.30;;;3.40;99.90;;;;;;5067673;28;20143;-78
2022/01/08 03:15:52;;;;;;;4.75;1.30;;;3.50;99.90;;;;;;5051988;28;20388;-77
2022/01/08 03:18:18;;;;;;;11.48;1.85;;;3.50;99.90;;;;;;5049754;28;20073;-77
2022/01/08 03:20:53;;;;;;;6.15;1.38;;;3.60;99.90;;;;;;5032811;28;20056;-77
2022/01/08 03:23:20;;;;;;;10.32;1.73;;;3.60;99.90;;;;;;5052316;28;20105;-76
2022/01/08 03:25:46;;;;;;;8.18;1.55;;;3.60;99.90;;;;;;5062173;28;20040;-77
2022/01/08 03:28:11;;;;;;;8.90;1.90;;;4.00;99.90;;;;;;5050629;28;20110;-77
2022/01/08 03:30:39;;;;;;;5.68;1.58;;;3.60;99.90;;;;;;5049447;28;20055;-77
2022/01/08 03:33:05;;;;;;;6.03;1.40;;;4.80;99.90;;;;;;5051574;28;20484;-78
2022/01/08 03:35:30;;;;;;;8.23;1.27;;;3.60;99.90;;;;;;5051740;28;20182;-77
2022/01/08 03:37:56;;;;;;;10.90;1.73;;;3.60;99.90;;;;;;5050846;28;20046;-77
2022/01/08 03:40:22;;;;;;;5.93;1.25;;;3.60;99.90;;;;;;5050918;28;20051;-77
2022/01/08 03:42:47;;;;;;;9.93;1.48;;;3.80;99.90;;;;;;5050671;28;20059;-78
2022/01/08 03:45:13;;;;;;;4.45;1.23;;;3.70;99.90;;;;;;5036191;28;20048;-77
2022/01/08 03:48:04;;;;;;;12.50;1.60;;;4.20;99.90;;;;;;5050740;28;20132;-77
2022/01/08 03:50:28;;;;;;;5.82;1.50;;;3.70;99.90;;;;;;5047064;28;20052;-78
2022/01/08 03:52:53;;;;;;;6.40;1.45;;;3.70;99.90;;;;;;5065604;28;20043;-77
2022/01/08 03:55:19;;;;;;;6.40;1.40;;;5.10;99.90;;;;;;5067141;28;20474;-77
2022/01/08 03:57:45;;;;;;;9.25;1.60;;;3.60;99.90;;;;;;5052148;28;20047;-77
2022/01/08 04:00:11;;;;;;;5.90;1.48;;;3.70;99.90;;;;;;5050653;28;20082;-78
2022/01/08 04:02:37;;;;;;;4.68;1.15;;;3.50;99.90;;;;;;5035732;28;20075;-77
2022/01/08 04:05:03;;;;;;;6.15;1.50;;;3.40;99.90;;;;;;5050578;28;20425;-78
2022/01/08 04:07:28;;;;;;;5.13;1.20;;;3.30;99.90;;;;;;5066763;28;20036;-77
2022/01/08 04:09:54;;;;;;;3.03;1.05;;;3.20;99.90;;;;;;5050786;28;20073;-77
2022/01/08 04:12:30;;;;;;;5.85;1.02;;;3.20;99.90;;;;;;5049059;28;20128;-77
2022/01/08 04:15:05;;;;;;;6.63;1.40;;;3.10;99.90;;;;;;5066630;28;20052;-77
2022/01/08 04:17:31;;;;;;;6.22;1.50;;;3.50;99.90;;;;;;5049526;28;20133;-77
2022/01/08 04:19:57;;;;;;;12.27;1.70;;;3.50;99.90;;;;;;5067146;28;20098;-76
2022/01/08 04:22:24;;;;;;;8.15;1.60;;;3.10;99.90;;;;;;5050449;28;20047;-77
2022/01/08 04:24:50;;;;;;;6.75;1.65;;;4.70;99.90;;;;;;5036513;28;20141;-77
2022/01/08 04:27:16;;;;;;;5.97;1.83;;;3.30;99.90;;;;;;5051160;28;20064;-77
2022/01/08 04:29:41;;;;;;;8.75;1.50;;;3.40;99.90;;;;;;5045133;28;20048;-76
2022/01/08 04:32:08;;;;;;;6.45;1.77;;;3.40;99.90;;;;;;5048287;28;20056;-77
2022/01/08 04:34:34;;;;;;;4.03;1.27;;;4.40;99.90;;;;;;5051074;28;20043;-77
2022/01/08 04:36:59;;;;;;;6.50;1.77;;;3.90;99.90;;;;;;5066013;28;20071;-77
2022/01/08 04:39:27;;;;;;;5.25;1.65;;;3.60;99.90;;;;;;5031064;28;20039;-77
2022/01/08 04:41:53;;;;;;;5.53;1.30;;;3.70;99.90;;;;;;5050388;28;20051;-76
2022/01/08 04:44:19;;;;;;;8.88;1.63;;;4.80;99.90;;;;;;5048088;28;20503;-78
2022/01/08 04:46:45;;;;;;;5.28;1.67;;;4.50;99.90;;;;;;5035020;28;20048;-78
2022/01/08 04:49:10;;;;;;;4.68;1.35;;;4.30;99.90;;;;;;5051677;28;20052;-79
2022/01/08 04:51:36;;;;;;;7.05;1.30;;;3.60;99.90;;;;;;5065890;28;20054;-78
2022/01/08 04:54:02;;;;;;;7.05;1.48;;;3.80;99.90;;;;;;5034309;28;20049;-78
2022/01/08 04:56:28;;;;;;;6.47;1.85;;;4.50;99.90;;;;;;5032562;28;20440;-78
2022/01/08 04:58:54;;;;;;;8.13;1.35;;;3.60;99.90;;;;;;5049316;28;20036;-78
2022/01/08 05:01:19;;;;;;;7.03;1.40;;;4.70;99.90;;;;;;5049377;28;20091;-78
2022/01/08 05:03:45;;;;;;;6.72;1.77;;;3.50;99.90;;;;;;5034909;28;20131;-78
2022/01/08 05:06:11;;;;;;;8.25;1.52;;;3.50;99.90;;;;;;5049340;28;20126;-78
2022/01/08 05:08:37;;;;;;;8.98;1.30;;;3.90;99.90;;;;;;5030942;28;20047;-79
2022/01/08 05:11:03;;;;;;;4.10;1.20;;;3.50;99.90;;;;;;5050783;28;20048;-78
2022/01/08 05:13:28;;;;;;;8.55;1.38;;;3.90;99.90;;;;;;5043189;28;20507;-79
2022/01/08 05:15:55;;;;;;;6.82;1.40;;;3.50;99.90;;;;;;5065397;28;20058;-78
2022/01/08 05:18:22;;;;;;;4.97;1.30;;;4.60;99.90;;;;;;5042695;28;20048;-79
2022/01/08 05:20:56;;;;;;;4.85;1.27;;;3.50;99.90;;;;;;5064013;28;20060;-79
2022/01/08 05:23:22;;;;;;;10.70;1.50;;;3.90;99.90;;;;;;5064208;28;20383;-79
2022/01/08 05:25:47;;;;;;;6.38;1.60;;;3.70;99.90;;;;;;5051926;28;20059;-79
2022/01/08 05:28:13;;;;;;;5.28;1.30;;;3.70;99.90;;;;;;5034162;28;20040;-78
2022/01/08 05:30:39;;;;;;;7.15;1.50;;;4.70;99.90;;;;;;5050158;28;20054;-78
2022/01/08 05:33:05;;;;;;;6.80;1.45;;;3.40;99.90;;;;;;5047509;28;20040;-79
2022/01/08 05:35:30;;;;;;;7.35;1.50;;;4.60;99.90;;;;;;5051083;28;20485;-78
2022/01/08 05:37:56;;;;;;;6.00;1.23;;;4.30;99.90;;;;;;5065819;28;20086;-79
2022/01/08 05:40:22;;;;;;;4.80;1.20;;;3.50;99.90;;;;;;5063423;28;20059;-80
2022/01/08 05:42:49;;;;;;;6.38;1.30;;;4.30;99.90;;;;;;5065793;28;20043;-79
2022/01/08 05:45:15;;;;;;;6.47;1.42;;;4.00;99.90;;;;;;5042563;28;20048;-78
2022/01/08 05:47:41;;;;;;;7.78;1.10;;;3.90;99.90;;;;;;5049857;28;20067;-78
2022/01/08 05:50:07;;;;;;;7.50;1.38;;;3.50;99.90;;;;;;5061786;28;20513;-79
2022/01/08 05:52:34;;;;;;;4.60;1.10;;;3.50;99.90;;;;;;5063391;28;20044;-80
2022/01/08 05:55:00;;;;;;;6.05;1.40;;;3.50;99.90;;;;;;5035082;28;21198;-77
2022/01/08 05:57:26;;;;;;;4.85;1.05;;;3.50;99.90;;;;;;5053487;28;20047;-76
2022/01/08 05:59:51;;;;;;;7.30;1.58;;;4.40;99.90;;;;;;5037091;28;20039;-76
2022/01/08 06:02:17;;;;;;;7.28;1.35;;;3.70;99.90;;;;;;5068016;28;20048;-77
2022/01/08 06:04:43;;;;;;;8.43;1.38;;;3.60;99.90;;;;;;5037481;28;20054;-77
2022/01/08 06:07:09;;;;;;;4.20;1.35;;;3.60;99.90;;;;;;5068486;28;20044;-77
2022/01/08 06:09:35;;;;;;;5.63;1.13;;;3.60;99.90;;;;;;5067309;28;20083;-76
2022/01/08 06:12:00;;;;;;;6.57;1.20;;;3.60;99.90;;;;;;5053020;28;20046;-77
2022/01/08 06:14:26;;;;;;;3.38;1.40;;;3.70;99.90;;;;;;5053897;28;20048;-76
2022/01/08 06:16:52;;;;;;;7.15;0.90;;;3.60;99.90;;;;;;5051479;28;20044;-76
2022/01/08 06:19:18;;;;;;;6.45;1.02;;;3.70;99.90;;;;;;5051993;28;20062;-76
2022/01/08 06:21:44;;;;;;;9.65;1.55;;;3.70;99.90;;;;;;5061834;28;20059;-77
2022/01/08 06:24:09;;;;;;;4.22;1.23;;;3.80;99.90;;;;;;5047609;28;20051;-77
2022/01/08 06:26:36;;;;;;;4.97;0.90;;;3.60;99.90;;;;;;5068830;28;20048;-76
2022/01/08 06:29:02;;;;;;;3.83;1.15;;;3.70;99.90;;;;;;5068409;28;20043;-76
2022/01/08 06:31:28;;;;;;;7.25;1.08;;;3.60;99.90;;;;;;5037423;28;20051;-77
2022/01/08 06:33:55;;;;;;;7.68;1.15;;;3.70;99.90;;;;;;5036681;28;20086;-76
2022/01/08 06:36:23;;;;;;;5.25;1.35;;;3.70;99.90;;;;;;5053732;28;20044;-77
2022/01/08 06:38:53;;;;;;;3.75;0.95;;;3.90;99.90;;;;;;5051237;28;20070;-78
2022/01/08 06:41:19;;;;;;;6.32;1.30;;;3.70;99.90;;;;;;5067128;28;20039;-77
2022/01/08 06:43:45;;;;;;;3.88;1.35;;;3.70;99.90;;;;;;5067171;28;20266;-77
2022/01/08 06:46:12;;;;;;;6.55;1.63;;;3.70;99.90;;;;;;5037299;28;20118;-78
2022/01/08 06:48:37;;;;;;;5.93;1.23;;;4.70;99.90;;;;;;5065843;28;20102;-77
2022/01/08 06:51:03;;;;;;;3.42;0.88;;;3.70;99.90;;;;;;5045614;28;20107;-78
2022/01/08 06:53:29;;;;;;;4.45;0.90;;;3.70;99.90;;;;;;5035978;28;20052;-77
2022/01/08 06:55:54;;;;;;;2.15;0.85;;;3.70;99.90;;;;;;5037358;28;20051;-77
2022/01/08 06:58:21;;;;;;;5.50;1.20;;;4.40;99.90;;;;;;5051308;28;20044;-76
2022/01/08 07:00:47;;;;;;;4.78;1.13;;;3.80;99.90;;;;;;5019173;28;20055;-77
2022/01/08 07:03:13;;;;;;;4.35;1.10;;;4.50;99.90;;;;;;5036599;28;20409;-77
2022/01/08 07:05:39;;;;;;;3.10;1.00;;;4.70;99.90;;;;;;5051866;28;20044;-76
2022/01/08 07:08:05;;;;;;;8.23;1.20;;;3.80;99.90;;;;;;5066104;28;20123;-77
2022/01/08 07:10:32;;;;;;;5.00;1.10;;;3.80;99.90;;;;;;5057984;28;20139;-76
2022/01/08 07:12:57;;;;;;;3.83;0.98;;;3.80;99.90;;;;;;5066370;28;20073;-76
2022/01/08 07:15:23;;;;;;;6.75;1.15;;;3.80;99.90;;;;;;5068798;28;20044;-76
2022/01/08 07:17:50;;;;;;;3.72;0.98;;;3.80;99.90;;;;;;5050392;28;20430;-77
2022/01/08 07:20:16;;;;;;;3.10;1.00;;;4.20;99.90;;;;;;5048638;28;20079;-76
2022/01/08 07:22:42;;;;;;;8.15;1.98;;;3.80;99.90;;;;;;5061191;28;20048;-77
2022/01/08 07:25:08;;;;;;;5.45;1.48;;;3.80;99.90;;;;;;5049294;28;20056;-77
2022/01/08 07:27:34;;;;;;;4.60;1.30;;;3.80;99.90;;;;;;5033529;28;20037;-77
2022/01/08 07:30:01;;;;;;;4.68;1.45;;;4.10;99.90;;;;;;5065175;28;20060;-77
2022/01/08 07:32:27;;;;;;;5.88;1.15;;;3.70;99.90;;;;;;5047315;28;20051;-78
2022/01/08 07:34:53;;;;;;;11.38;1.50;;;3.70;99.90;;;;;;5064033;28;20056;-77
2022/01/08 07:37:19;;;;;;;6.18;1.20;;;3.70;99.90;;;;;;5048273;28;20041;-76
2022/01/08 07:39:45;;;;;;;7.13;1.40;;;3.60;99.90;;;;;;5030246;28;20127;-77
2022/01/08 07:42:10;;;;;;;4.65;1.27;;;3.60;99.90;;;;;;5046290;28;20182;-75
2022/01/08 07:44:36;;;;;;;5.15;1.27;;;3.50;99.90;;;;;;5048539;28;20134;-79
2022/01/08 07:47:02;;;;;;;2.42;1.20;;;3.50;99.90;;;;;;5043484;28;20170;-77
2022/01/08 07:49:28;;;;;;;8.02;1.52;;;3.40;99.90;;;;;;5049184;28;20120;-77
2022/01/08 07:51:54;;;;;;;5.07;1.40;;;3.40;99.90;;;;;;5060571;28;20175;-77
2022/01/08 07:54:19;;;;;;;6.07;2.00;;;3.90;99.90;;;;;;5063771;28;20048;-78
2022/01/08 07:56:45;;;;;;;5.85;1.60;;;3.50;99.90;;;;;;5046193;28;20052;-77
2022/01/08 07:59:11;;;;;;;5.97;1.67;;;3.30;99.90;;;;;;5064131;28;20534;-76
2022/01/08 08:01:37;;;;;;;5.05;1.55;;;3.70;99.90;;;;;;5032168;28;20055;-77
2022/01/08 08:04:03;;;;;;;7.35;1.65;;;4.10;99.90;;;;;;5032917;28;20088;-76
2022/01/08 08:06:28;;;;;;;4.93;1.30;;;3.30;99.90;;;;;;5032641;28;20098;-76
2022/01/08 08:08:54;;;;;;;4.28;1.70;;;4.30;99.90;;;;;;5030615;28;20060;-76
2022/01/08 08:11:20;;;;;;;7.70;1.75;;;3.30;99.90;;;;;;5030900;28;20047;-77
2022/01/08 08:13:45;;;;;;;6.72;2.03;;;3.30;99.90;;;;;;5047266;28;20044;-77
2022/01/08 08:16:11;;;;;;;6.00;1.75;;;3.20;99.90;;;;;;5016942;28;20084;-76
2022/01/08 08:18:37;;;;;;;6.95;1.90;;;4.70;99.90;;;;;;5049032;28;20052;-77
2022/01/08 08:21:02;;;;;;;4.47;1.73;;;3.20;99.90;;;;;;5041240;28;20053;-77
2022/01/08 08:23:28;;;;;;;4.35;1.90;;;3.30;99.90;;;;;;5063574;28;20052;-78
2022/01/08 08:25:54;;;;;;;4.05;1.70;;;3.20;99.90;;;;;;5033403;28;20045;-78
2022/01/08 08:28:20;;;;;;;5.40;1.80;;;4.40;99.90;;;;;;5063261;28;20134;-78
2022/01/08 08:30:45;;;;;;;6.53;1.90;;;4.20;99.90;;;;;;5047378;28;20044;-77
2022/01/08 08:33:11;;;;;;;4.55;1.88;;;3.20;99.90;;;;;;5062175;28;20044;-77
2022/01/08 08:35:37;;;;;;;5.78;1.50;;;3.30;99.90;;;;;;5059988;28;20055;-78
2022/01/08 08:38:02;;;;;;;7.85;1.88;;;3.40;99.90;;;;;;5047992;28;20427;-78
2022/01/08 08:40:28;;;;;;;4.40;1.50;;;3.40;99.90;;;;;;5028704;28;20516;-78
2022/01/08 08:42:54;;;;;;;6.82;1.75;;;3.80;99.90;;;;;;5061607;28;20578;-77
2022/01/08 08:45:20;;;;;;;8.18;1.63;;;3.60;99.90;;;;;;5063708;28;20051;-77
2022/01/08 08:47:46;;;;;;;7.97;2.33;;;3.70;99.90;;;;;;5045265;28;20048;-81
2022/01/08 08:50:14;;;;;;;4.82;1.60;;;4.70;99.90;;;;;;5030575;28;20044;-80
2022/01/08 08:52:40;;;;;;;10.07;1.88;;;4.00;99.90;;;;;;5063849;28;20123;-76
2022/01/08 08:55:07;;;;;;;4.82;1.58;;;4.20;99.90;;;;;;5046770;28;20430;-77
2022/01/08 08:57:33;;;;;;;7.30;1.60;;;4.20;99.90;;;;;;5033647;28;20051;-78
2022/01/08 08:59:58;;;;;;;8.93;1.63;;;4.10;99.90;;;;;;5064114;28;20044;-77
2022/01/08 09:02:24;;;;;;;8.25;1.70;;;4.10;99.90;;;;;;5064171;28;20637;-77
2022/01/08 09:04:50;;;;;;;6.90;1.65;;;4.00;99.90;;;;;;5031146;28;20036;-76
2022/01/08 09:07:16;;;;;;;4.15;1.70;;;4.00;99.90;;;;;;5060636;28;20485;-81
2022/01/08 09:09:43;;;;;;;7.25;2.20;;;4.00;99.90;;;;;;5045338;28;20054;-80
2022/01/08 09:12:10;;;;;;;7.15;1.80;;;4.80;99.90;;;;;;5030689;28;20053;-77
2022/01/08 09:14:36;;;;;;;5.13;1.63;;;4.20;99.90;;;;;;5029778;28;20049;-78
2022/01/08 09:17:04;;;;;;;4.70;1.60;;;4.00;99.90;;;;;;5028666;28;20409;-76
2022/01/08 09:19:30;;;;;;;5.07;1.60;;;4.00;99.90;;;;;;5048115;28;20047;-76
2022/01/08 09:21:56;;;;;;;6.53;1.58;;;4.00;99.90;;;;;;5064813;28;20382;-77
2022/01/08 09:24:22;;;;;;;4.63;1.55;;;4.00;99.90;;;;;;5048478;28;20100;-76
2022/01/08 09:26:48;;;;;;;9.52;1.73;;;4.70;99.90;;;;;;5051002;28;20063;-76
2022/01/08 09:29:16;;;;;;;6.43;1.80;;;4.10;99.90;;;;;;5034360;28;20040;-78
2022/01/08 09:31:42;;;;;;;5.80;1.58;;;4.10;99.90;;;;;;5048744;28;20048;-78
2022/01/08 09:34:09;;;;;;;6.28;1.60;;;4.10;99.90;;;;;;5049191;28;20048;-77
2022/01/08 09:36:38;;;;;;;7.15;1.95;;;4.10;99.90;;;;;;5048669;28;20531;-77
2022/01/08 09:39:06;;;;;;;4.80;1.80;;;4.20;99.90;;;;;;5064951;28;20048;-78
2022/01/08 09:41:32;;;;;;;5.70;1.85;;;4.20;99.90;;;;;;5048223;28;20440;-77
2022/01/08 09:43:58;;;;;;;5.70;2.00;;;4.20;99.90;;;;;;5065519;28;20040;-78
2022/01/08 09:46:23;;;;;;;6.78;1.90;;;4.20;99.90;;;;;;5049905;28;20044;-78
2022/01/08 09:48:49;;;;;;;4.75;1.70;;;4.30;99.90;;;;;;5042256;28;20523;-78
2022/01/08 09:51:17;;;;;;;7.32;1.88;;;4.90;99.90;;;;;;5034214;28;20047;-78
2022/01/08 09:53:43;;;;;;;9.73;2.30;;;4.30;99.90;;;;;;5049148;28;20070;-77
2022/01/08 09:56:09;;;;;;;7.05;2.10;;;4.30;99.90;;;;;;5063630;28;20520;-77
2022/01/08 09:58:35;;;;;;;7.70;1.90;;;4.30;99.90;;;;;;5048195;28;20048;-78
2022/01/08 10:01:02;;;;;;;5.28;1.60;;;4.70;99.90;;;;;;5055635;28;20063;-78
2022/01/08 10:03:33;;;;;;;7.25;2.05;;;5.30;99.90;;;;;;5050513;28;20123;-77
2022/01/08 10:06:00;;;;;;;9.82;2.25;;;4.40;99.90;;;;;;5061549;28;20440;-76
2022/01/08 10:08:29;;;;;;;6.70;2.28;;;4.50;99.90;;;;;;5047484;28;20051;-77
2022/01/08 10:11:03;;;;;;;8.45;2.10;;;4.30;99.90;;;;;;5050762;28;20058;-79
2022/01/08 10:13:32;;;;;;;9.80;2.80;;;4.30;99.90;;;;;;5060927;28;20050;-81
2022/01/08 10:18:45;;;;;;;8.20;2.67;;;4.50;99.90;;;;;;5062083;28;20512;-80
2022/01/08 10:21:22;;;;;;;7.38;2.60;;;4.60;99.90;;;;;;5061637;28;20818;-81
2022/01/08 10:23:52;;;;;;;12.93;2.67;;;4.60;99.90;;;;;;5049464;28;20535;-81
2022/01/08 10:26:24;;;;;;;8.23;2.20;;;4.60;99.90;;;;;;5043092;28;20044;-81
2022/01/08 10:28:56;;;;;;;7.90;2.17;;;4.50;99.90;;;;;;5046405;28;20040;-81
2022/01/08 10:31:23;;;;;;;6.97;2.47;;;5.00;99.90;;;;;;5060338;28;20104;-82
2022/01/08 10:34:11;;;;;;;7.80;2.20;;;4.50;99.90;;;;;;5049517;28;20048;-79
2022/01/08 10:36:40;;;;;;;8.65;2.28;;;4.70;99.90;;;;;;5046293;28;20059;-80
2022/01/08 10:39:11;;;;;;;5.63;2.15;;;4.70;99.90;;;;;;5043060;28;20040;-81
2022/01/08 10:41:43;;;;;;;7.93;2.28;;;5.10;99.90;;;;;;5067385;28;20052;-81
2022/01/08 10:44:12;;;;;;;7.80;2.50;;;4.60;99.90;;;;;;5052297;28;20078;-81
2022/01/08 10:46:44;;;;;;;6.40;2.10;;;4.60;99.90;;;;;;5065910;28;20098;-81
2022/01/08 10:49:10;;;;;;;7.25;2.47;;;6.00;99.90;;;;;;5051890;28;20550;-76
2022/01/08 10:51:39;;;;;;;8.82;2.97;;;5.40;99.90;;;;;;5052430;28;20168;-76
2022/01/08 10:54:15;;;;;;;8.15;2.60;;;4.60;99.90;;;;;;5064460;28;20051;-76
2022/01/08 10:56:41;;;;;;;;;;;4.80;99.90;;;;;;5068357;28;20131;-79
2022/01/08 10:59:20;;;;;;;7.90;2.70;;;5.20;99.90;;;;;;5060512;28;19985;-80
2022/01/08 11:02:07;;;;;;;6.88;2.70;;;4.50;99.90;;;;;;5052431;28;20097;-81
2022/01/08 11:04:49;;;;;;;4.93;2.65;;;4.70;99.90;;;;;;5046631;28;20076;-80
2022/01/08 11:07:17;;;;;;;5.95;2.78;;;4.50;99.90;;;;;;5063189;28;20047;-81
2022/01/08 11:09:45;;;;;;;9.50;3.17;;;4.50;99.90;;;;;;5049488;28;20403;-80
2022/01/08 11:12:17;;;;;;;7.65;2.80;;;4.40;99.90;;;;;;5064491;28;20409;-80
2022/01/08 11:17:28;;;;;;;8.18;2.72;;;4.40;99.90;;;;;;5068051;28;20060;-79
2022/01/08 11:20:19;;;;;;;8.80;2.63;;;4.40;99.90;;;;;;5044255;28;20091;-79
2022/01/08 11:22:49;;;;;;;7.32;2.70;;;4.40;99.90;;;;;;5065575;28;20052;-80
2022/01/08 11:25:16;;;;;;;11.77;2.50;;;4.40;99.90;;;;;;5043277;28;20754;-75
2022/01/08 11:28:00;;;;;;;8.43;3.25;;;4.40;99.90;;;;;;5066086;28;20044;-76
2022/01/08 11:30:28;;;;;;;7.57;3.28;;;5.50;99.90;;;;;;5044332;28;20416;-76
2022/01/08 11:32:58;;;;;;;7.68;3.13;;;4.40;99.90;;;;;;5046402;28;20040;-76
2022/01/08 11:35:25;;;;;;;10.60;3.65;;;4.40;99.90;;;;;;5052867;28;20109;-78
2022/01/08 11:37:52;;;;;;;7.20;3.55;;;4.90;99.90;;;;;;5066743;28;20043;-78
2022/01/08 11:40:20;;;;;;;9.98;4.00;;;4.40;99.90;;;;;;5051162;28;20516;-77
2022/01/08 11:42:47;;;;;;;9.23;3.88;;;4.40;99.90;;;;;;5052282;28;20051;-79
2022/01/08 11:45:17;;;;;;;10.45;4.30;;;4.40;99.90;;;;;;5049928;28;20059;-78
2022/01/08 11:47:52;;;;;;;8.55;4.53;;;4.40;99.90;;;;;;5066001;28;20465;-77
2022/01/08 11:50:27;;;;;;;9.27;4.95;;;4.40;99.90;;;;;;5045694;28;20095;-77
2022/01/08 11:53:23;;;;;;;11.10;5.10;;;4.40;99.90;;;;;;5060964;28;20464;-78
2022/01/08 11:55:52;;;;;;;7.70;4.90;;;4.40;99.90;;;;;;5051966;28;20515;-79
2022/01/08 11:58:30;;;;;;;12.45;6.03;;;4.40;99.90;;;;;;5050381;28;20374;-78
2022/01/08 12:01:02;;;;;;;9.80;5.80;;;4.40;99.90;;;;;;5067609;28;20113;-78
2022/01/08 12:03:36;;;;;;;9.43;6.10;;;4.40;99.90;;;;;;5051881;28;20109;-77
2022/01/08 12:06:34;;;;;;;8.73;5.85;;;4.40;99.90;;;;;;5066446;28;20044;-77
2022/01/08 12:09:07;;;;;;;9.18;5.32;;;4.40;99.90;;;;;;5066466;28;20553;-77
2022/01/08 12:11:34;;;;;;;7.68;5.00;;;4.30;99.90;;;;;;5048537;28;20105;-81
2022/01/08 12:14:14;;;;;;;10.00;4.65;;;4.30;99.90;;;;;;5033912;28;20085;-78
2022/01/08 12:16:51;;;;;;;4.88;3.80;;;5.20;99.90;;;;;;5062766;28;20466;-80
2022/01/08 12:19:38;;;;;;;6.45;3.60;;;4.20;99.90;;;;;;5065564;28;20067;-79
2022/01/08 12:22:16;;;;;;;3.83;2.58;;;4.20;99.90;;;;;;5046649;28;20166;-78
2022/01/08 12:24:43;;;;;;;4.47;2.30;;;4.30;99.90;;;;;;5053080;28;20427;-79
2022/01/08 12:27:34;;;;;;;3.95;1.92;;;4.10;99.90;;;;;;5063241;28;20044;-77
2022/01/08 12:30:15;;;;;;;2.67;1.40;;;4.10;99.90;;;;;;5047938;28;20047;-82
2022/01/08 12:32:46;;;;;;;2.17;1.20;;;4.10;99.90;;;;;;5049260;28;20184;-80
2022/01/08 12:35:23;;;;;;;3.03;1.17;;;4.10;99.90;;;;;;5064527;28;20059;-80
2022/01/08 12:38:00;;;;;;;2.05;1.23;;;4.00;99.90;;;;;;5045007;28;20127;-80
2022/01/08 12:40:45;;;;;;;2.83;1.50;;;4.00;99.90;;;;;;5047420;28;20087;-80
2022/01/08 12:43:31;;;;;;;3.45;1.05;;;4.30;99.90;;;;;;5062613;28;20048;-80
2022/01/08 12:46:23;;;;;;;3.65;1.15;;;3.90;99.90;;;;;;5047560;28;20045;-80
2022/01/08 12:49:07;;;;;;;3.63;1.20;;;3.90;99.90;;;;;;5065249;28;20040;-79
2022/01/08 12:52:05;;;;;;;2.55;1.13;;;3.90;99.90;;;;;;5045862;28;20047;-79
2022/01/08 12:54:32;;;;;;;5.03;1.90;;;3.90;99.90;;;;;;5049892;28;20056;-80
2022/01/08 12:57:00;;;;;;;4.32;1.83;;;3.90;99.90;;;;;;5046486;28;20048;-80
2022/01/08 12:59:32;;;;;;;3.78;2.05;;;3.90;99.90;;;;;;5030758;28;20048;-83
2022/01/08 13:01:57;;;;;;;4.22;2.22;;;5.00;99.90;;;;;;5048090;28;20142;-82
2022/01/08 13:04:24;;;;;;;4.57;2.55;;;4.30;99.90;;;;;;5063325;28;20119;-82
2022/01/08 13:06:50;;;;;;;5.13;3.05;;;4.20;99.90;;;;;;5048932;28;20539;-81
2022/01/08 13:09:16;;;;;;;5.97;3.05;;;4.50;99.90;;;;;;5058084;28;20040;-80
2022/01/08 13:11:44;;;;;;;6.63;3.53;;;4.70;99.90;;;;;;5033615;28;20046;-80
2022/01/08 13:14:16;;;;;;;7.22;3.90;;;3.80;99.90;;;;;;5046933;28;20037;-80
2022/01/08 13:16:47;;;;;;;6.68;3.90;;;4.10;99.90;;;;;;5050437;28;20074;-79
2022/01/08 13:19:16;;;;;;;7.72;4.38;;;3.70;99.90;;;;;;5049400;28;20036;-80
2022/01/08 13:21:50;;;;;;;6.63;4.03;;;3.70;99.90;;;;;;5079887;28;20052;-79
2022/01/08 13:24:27;;;;;;;5.72;4.20;;;3.70;99.90;;;;;;5049332;28;20044;-79